sensor_id;sensor_type;location;lat;lon;timestamp;P1;durP1;ratioP1;P2;durP2;ratioP2
12597;SDS011;6364;53.590;9.956;2023-11-22T00:01:29;7.72;;;5.15;;
12597;SDS011;6364;53.590;9.956;2023-11-22T00:03:54;6.85;;;4.63;;
12597;SDS011;6364;53.590;9.956;2023-11-22T00:06:19;9.25;;;5.30;;
12597;SDS011;6364;53.590;9.956;2023-11-22T00:08:47;8.05;;;5.13;;
12597;SDS011;6364;53.590;9.956;2023-11-22T00:11:13;8.73;;;5.75;;
12597;SDS011;6364;53.590;9.956;2023-11-22T00:13:38;13.05;;;5.88;;
12597;SDS011;6364;53.590;9.956;2023-11-22T00:16:04;9.02;;;5.88;;
12597;SDS011;6364;53.590;9.956;2023-11-22T00:18:29;12.85;;;6.35;;
12597;SDS011;6364;53.590;9.956;2023-11-22T00:20:55;10.82;;;6.22;;
12597;SDS011;6364;53.590;9.956;2023-11-22T00:23:22;8.57;;;5.25;;
12597;SDS011;6364;53.590;9.956;2023-11-22T00:25:52;11.00;;;5.85;;
12597;SDS011;6364;53.590;9.956;2023-11-22T00:28:18;9.85;;;5.95;;
12597;SDS011;6364;53.590;9.956;2023-11-22T00:30:43;9.88;;;5.45;;
12597;SDS011;6364;53.590;9.956;2023-11-22T00:33:09;9.68;;;5.65;;
12597;SDS011;6364;53.590;9.956;2023-11-22T00:35:34;11.43;;;5.95;;
12597;SDS011;6364;53.590;9.956;2023-11-22T00:38:00;9.73;;;6.32;;
12597;SDS011;6364;53.590;9.956;2023-11-22T00:40:25;11.75;;;6.13;;
12597;SDS011;6364;53.590;9.956;2023-11-22T00:42:51;9.50;;;5.72;;
12597;SDS011;6364;53.590;9.956;2023-11-22T00:45:16;9.52;;;6.25;;
12597;SDS011;6364;53.590;9.956;2023-11-22T00:47:43;10.77;;;6.00;;
12597;SDS011;6364;53.590;9.956;2023-11-22T00:50:08;12.93;;;5.90;;
12597;SDS011;6364;53.590;9.956;2023-11-22T00:52:34;13.80;;;6.03;;
12597;SDS011;6364;53.590;9.956;2023-11-22T00:55:00;9.23;;;6.43;;
12597;SDS011;6364;53.590;9.956;2023-11-22T00:57:25;9.82;;;6.40;;
12597;SDS011;6364;53.590;9.956;2023-11-22T00:59:52;11.27;;;6.82;;
12597;SDS011;6364;53.590;9.956;2023-11-22T01:02:18;12.32;;;6.70;;
12597;SDS011;6364;53.590;9.956;2023-11-22T01:04:44;14.18;;;6.05;;
12597;SDS011;6364;53.590;9.956;2023-11-22T01:07:10;12.13;;;6.78;;
12597;SDS011;6364;53.590;9.956;2023-11-22T01:09:35;14.77;;;6.72;;
12597;SDS011;6364;53.590;9.956;2023-11-22T01:12:01;14.20;;;7.25;;
12597;SDS011;6364;53.590;9.956;2023-11-22T01:14:26;8.88;;;6.18;;
12597;SDS011;6364;53.590;9.956;2023-11-22T01:16:52;12.88;;;6.57;;
12597;SDS011;6364;53.590;9.956;2023-11-22T01:19:19;12.05;;;6.63;;
12597;SDS011;6364;53.590;9.956;2023-11-22T01:21:44;8.32;;;5.75;;
12597;SDS011;6364;53.590;9.956;2023-11-22T01:24:10;21.80;;;6.55;;
12597;SDS011;6364;53.590;9.956;2023-11-22T01:26:36;16.98;;;6.95;;
12597;SDS011;6364;53.590;9.956;2023-11-22T01:29:02;12.43;;;6.72;;
12597;SDS011;6364;53.590;9.956;2023-11-22T01:31:27;13.77;;;6.70;;
12597;SDS011;6364;53.590;9.956;2023-11-22T01:33:53;10.45;;;6.40;;
12597;SDS011;6364;53.590;9.956;2023-11-22T01:36:19;15.18;;;6.60;;
12597;SDS011;6364;53.590;9.956;2023-11-22T01:38:45;13.05;;;6.68;;
12597;SDS011;6364;53.590;9.956;2023-11-22T01:41:11;12.20;;;6.28;;
12597;SDS011;6364;53.590;9.956;2023-11-22T01:43:38;10.15;;;6.30;;
12597;SDS011;6364;53.590;9.956;2023-11-22T01:46:04;14.77;;;6.90;;
12597;SDS011;6364;53.590;9.956;2023-11-22T01:48:30;9.98;;;6.32;;
12597;SDS011;6364;53.590;9.956;2023-11-22T01:50:57;12.95;;;7.32;;
12597;SDS011;6364;53.590;9.956;2023-11-22T01:53:22;11.93;;;6.32;;
12597;SDS011;6364;53.590;9.956;2023-11-22T01:55:48;13.55;;;7.25;;
12597;SDS011;6364;53.590;9.956;2023-11-22T01:58:13;17.65;;;7.80;;
12597;SDS011;6364;53.590;9.956;2023-11-22T02:00:45;14.23;;;6.70;;
12597;SDS011;6364;53.590;9.956;2023-11-22T02:03:14;12.07;;;6.90;;
12597;SDS011;6364;53.590;9.956;2023-11-22T02:05:42;11.50;;;6.72;;
12597;SDS011;6364;53.590;9.956;2023-11-22T02:08:11;12.90;;;7.20;;
12597;SDS011;6364;53.590;9.956;2023-11-22T02:10:38;16.40;;;7.18;;
12597;SDS011;6364;53.590;9.956;2023-11-22T02:13:03;14.25;;;6.90;;
12597;SDS011;6364;53.590;9.956;2023-11-22T02:15:36;13.20;;;7.50;;
12597;SDS011;6364;53.590;9.956;2023-11-22T02:18:03;18.65;;;9.23;;
12597;SDS011;6364;53.590;9.956;2023-11-22T02:20:29;15.73;;;8.57;;
12597;SDS011;6364;53.590;9.956;2023-11-22T02:22:55;14.23;;;7.55;;
12597;SDS011;6364;53.590;9.956;2023-11-22T02:25:22;14.95;;;8.25;;
12597;SDS011;6364;53.590;9.956;2023-11-22T02:27:50;11.27;;;7.32;;
12597;SDS011;6364;53.590;9.956;2023-11-22T02:30:16;15.38;;;8.00;;
12597;SDS011;6364;53.590;9.956;2023-11-22T02:32:42;11.80;;;7.18;;
12597;SDS011;6364;53.590;9.956;2023-11-22T02:35:07;12.73;;;7.63;;
12597;SDS011;6364;53.590;9.956;2023-11-22T02:37:33;16.00;;;7.60;;
12597;SDS011;6364;53.590;9.956;2023-11-22T02:40:14;12.48;;;7.75;;
12597;SDS011;6364;53.590;9.956;2023-11-22T02:42:48;13.32;;;7.13;;
12597;SDS011;6364;53.590;9.956;2023-11-22T02:45:19;16.33;;;8.57;;
12597;SDS011;6364;53.590;9.956;2023-11-22T02:47:48;17.77;;;8.98;;
12597;SDS011;6364;53.590;9.956;2023-11-22T02:50:14;14.15;;;7.65;;
12597;SDS011;6364;53.590;9.956;2023-11-22T02:52:40;13.95;;;7.88;;
12597;SDS011;6364;53.590;9.956;2023-11-22T02:55:06;18.58;;;8.70;;
12597;SDS011;6364;53.590;9.956;2023-11-22T02:57:32;16.38;;;8.60;;
12597;SDS011;6364;53.590;9.956;2023-11-22T02:59:57;15.05;;;8.02;;
12597;SDS011;6364;53.590;9.956;2023-11-22T03:02:23;20.58;;;8.23;;
12597;SDS011;6364;53.590;9.956;2023-11-22T03:04:49;17.05;;;7.90;;
12597;SDS011;6364;53.590;9.956;2023-11-22T03:07:15;15.32;;;8.10;;
12597;SDS011;6364;53.590;9.956;2023-11-22T03:09:40;16.38;;;7.47;;
12597;SDS011;6364;53.590;9.956;2023-11-22T03:12:06;15.70;;;8.25;;
12597;SDS011;6364;53.590;9.956;2023-11-22T03:14:33;15.02;;;8.48;;
12597;SDS011;6364;53.590;9.956;2023-11-22T03:16:59;15.25;;;8.02;;
12597;SDS011;6364;53.590;9.956;2023-11-22T03:19:24;18.13;;;8.65;;
12597;SDS011;6364;53.590;9.956;2023-11-22T03:21:50;13.18;;;8.65;;
12597;SDS011;6364;53.590;9.956;2023-11-22T03:24:15;18.92;;;8.10;;
12597;SDS011;6364;53.590;9.956;2023-11-22T03:26:41;14.90;;;9.02;;
12597;SDS011;6364;53.590;9.956;2023-11-22T03:29:06;14.52;;;8.48;;
12597;SDS011;6364;53.590;9.956;2023-11-22T03:31:32;14.95;;;7.95;;
12597;SDS011;6364;53.590;9.956;2023-11-22T03:33:57;16.77;;;8.57;;
12597;SDS011;6364;53.590;9.956;2023-11-22T03:36:23;13.18;;;8.05;;
12597;SDS011;6364;53.590;9.956;2023-11-22T03:38:49;20.40;;;8.77;;
12597;SDS011;6364;53.590;9.956;2023-11-22T03:41:15;16.02;;;8.77;;
12597;SDS011;6364;53.590;9.956;2023-11-22T03:43:42;14.63;;;8.25;;
12597;SDS011;6364;53.590;9.956;2023-11-22T03:46:07;18.00;;;9.20;;
12597;SDS011;6364;53.590;9.956;2023-11-22T03:48:33;16.77;;;8.63;;
12597;SDS011;6364;53.590;9.956;2023-11-22T03:50:58;16.80;;;9.27;;
12597;SDS011;6364;53.590;9.956;2023-11-22T03:53:24;19.20;;;9.52;;
12597;SDS011;6364;53.590;9.956;2023-11-22T03:55:49;15.25;;;8.82;;
12597;SDS011;6364;53.590;9.956;2023-11-22T03:58:16;15.88;;;8.27;;
12597;SDS011;6364;53.590;9.956;2023-11-22T04:00:43;14.90;;;8.35;;
12597;SDS011;6364;53.590;9.956;2023-11-22T04:03:10;13.82;;;8.65;;
12597;SDS011;6364;53.590;9.956;2023-11-22T04:05:35;13.82;;;8.40;;
12597;SDS011;6364;53.590;9.956;2023-11-22T04:08:00;16.35;;;8.27;;
12597;SDS011;6364;53.590;9.956;2023-11-22T04:10:26;16.20;;;8.25;;
12597;SDS011;6364;53.590;9.956;2023-11-22T04:12:51;17.23;;;8.50;;
12597;SDS011;6364;53.590;9.956;2023-11-22T04:15:17;20.75;;;9.20;;
12597;SDS011;6364;53.590;9.956;2023-11-22T04:17:42;18.85;;;8.57;;
12597;SDS011;6364;53.590;9.956;2023-11-22T04:20:08;18.23;;;8.75;;
12597;SDS011;6364;53.590;9.956;2023-11-22T04:22:35;16.70;;;8.85;;
12597;SDS011;6364;53.590;9.956;2023-11-22T04:25:05;17.23;;;8.68;;
12597;SDS011;6364;53.590;9.956;2023-11-22T04:27:30;16.52;;;8.88;;
12597;SDS011;6364;53.590;9.956;2023-11-22T04:29:56;20.40;;;9.13;;
12597;SDS011;6364;53.590;9.956;2023-11-22T04:32:21;14.02;;;8.45;;
12597;SDS011;6364;53.590;9.956;2023-11-22T04:34:47;18.48;;;9.30;;
12597;SDS011;6364;53.590;9.956;2023-11-22T04:37:12;18.58;;;8.98;;
12597;SDS011;6364;53.590;9.956;2023-11-22T04:39:38;21.58;;;9.07;;
12597;SDS011;6364;53.590;9.956;2023-11-22T04:42:03;23.67;;;10.30;;
12597;SDS011;6364;53.590;9.956;2023-11-22T04:44:29;19.55;;;10.52;;
12597;SDS011;6364;53.590;9.956;2023-11-22T04:46:54;19.65;;;10.80;;
12597;SDS011;6364;53.590;9.956;2023-11-22T04:49:20;18.15;;;10.57;;
12597;SDS011;6364;53.590;9.956;2023-11-22T04:51:45;16.38;;;9.68;;
12597;SDS011;6364;53.590;9.956;2023-11-22T04:54:11;20.58;;;10.07;;
12597;SDS011;6364;53.590;9.956;2023-11-22T04:56:36;21.38;;;10.10;;
12597;SDS011;6364;53.590;9.956;2023-11-22T04:59:02;21.25;;;9.88;;
12597;SDS011;6364;53.590;9.956;2023-11-22T05:01:32;18.20;;;10.27;;
12597;SDS011;6364;53.590;9.956;2023-11-22T05:03:58;20.10;;;10.32;;
12597;SDS011;6364;53.590;9.956;2023-11-22T05:06:24;19.02;;;9.18;;
12597;SDS011;6364;53.590;9.956;2023-11-22T05:08:49;20.77;;;10.15;;
12597;SDS011;6364;53.590;9.956;2023-11-22T05:11:15;19.88;;;9.35;;
12597;SDS011;6364;53.590;9.956;2023-11-22T05:13:41;23.60;;;10.23;;
12597;SDS011;6364;53.590;9.956;2023-11-22T05:16:08;20.65;;;10.10;;
12597;SDS011;6364;53.590;9.956;2023-11-22T05:18:33;19.70;;;9.73;;
12597;SDS011;6364;53.590;9.956;2023-11-22T05:20:58;20.42;;;9.85;;
12597;SDS011;6364;53.590;9.956;2023-11-22T05:23:24;19.60;;;9.93;;
12597;SDS011;6364;53.590;9.956;2023-11-22T05:25:49;20.98;;;10.52;;
12597;SDS011;6364;53.590;9.956;2023-11-22T05:28:14;20.33;;;10.07;;
12597;SDS011;6364;53.590;9.956;2023-11-22T05:30:40;24.27;;;10.75;;
12597;SDS011;6364;53.590;9.956;2023-11-22T05:33:06;24.45;;;10.02;;
12597;SDS011;6364;53.590;9.956;2023-11-22T05:35:32;22.75;;;10.25;;
12597;SDS011;6364;53.590;9.956;2023-11-22T05:37:58;20.77;;;10.13;;
12597;SDS011;6364;53.590;9.956;2023-11-22T05:40:26;21.70;;;10.77;;
12597;SDS011;6364;53.590;9.956;2023-11-22T05:42:52;21.25;;;10.68;;
12597;SDS011;6364;53.590;9.956;2023-11-22T05:45:17;29.20;;;11.35;;
12597;SDS011;6364;53.590;9.956;2023-11-22T05:47:42;24.00;;;11.23;;
12597;SDS011;6364;53.590;9.956;2023-11-22T05:50:08;19.85;;;11.20;;
12597;SDS011;6364;53.590;9.956;2023-11-22T05:52:34;20.88;;;11.30;;
12597;SDS011;6364;53.590;9.956;2023-11-22T05:54:59;24.58;;;11.30;;
12597;SDS011;6364;53.590;9.956;2023-11-22T05:57:28;19.83;;;10.52;;
12597;SDS011;6364;53.590;9.956;2023-11-22T05:59:55;21.30;;;11.48;;
12597;SDS011;6364;53.590;9.956;2023-11-22T06:02:20;25.20;;;11.23;;
12597;SDS011;6364;53.590;9.956;2023-11-22T06:04:46;21.80;;;11.40;;
12597;SDS011;6364;53.590;9.956;2023-11-22T06:07:11;23.65;;;12.02;;
12597;SDS011;6364;53.590;9.956;2023-11-22T06:09:37;25.90;;;11.30;;
12597;SDS011;6364;53.590;9.956;2023-11-22T06:12:02;25.35;;;11.90;;
12597;SDS011;6364;53.590;9.956;2023-11-22T06:14:28;23.90;;;11.98;;
12597;SDS011;6364;53.590;9.956;2023-11-22T06:16:53;24.27;;;12.32;;
12597;SDS011;6364;53.590;9.956;2023-11-22T06:19:19;21.00;;;11.13;;
12597;SDS011;6364;53.590;9.956;2023-11-22T06:21:44;22.60;;;11.52;;
12597;SDS011;6364;53.590;9.956;2023-11-22T06:24:10;22.77;;;11.50;;
12597;SDS011;6364;53.590;9.956;2023-11-22T06:26:40;21.20;;;11.60;;
12597;SDS011;6364;53.590;9.956;2023-11-22T06:29:06;24.27;;;11.30;;
12597;SDS011;6364;53.590;9.956;2023-11-22T06:31:33;22.08;;;12.00;;
12597;SDS011;6364;53.590;9.956;2023-11-22T06:33:58;23.55;;;12.25;;
12597;SDS011;6364;53.590;9.956;2023-11-22T06:36:26;24.52;;;11.48;;
12597;SDS011;6364;53.590;9.956;2023-11-22T06:38:52;20.88;;;10.57;;
12597;SDS011;6364;53.590;9.956;2023-11-22T06:41:19;24.17;;;11.18;;
12597;SDS011;6364;53.590;9.956;2023-11-22T06:43:46;26.83;;;11.55;;
12597;SDS011;6364;53.590;9.956;2023-11-22T06:46:14;24.02;;;11.38;;
12597;SDS011;6364;53.590;9.956;2023-11-22T06:48:41;29.40;;;11.55;;
12597;SDS011;6364;53.590;9.956;2023-11-22T06:51:08;26.23;;;11.68;;
12597;SDS011;6364;53.590;9.956;2023-11-22T06:53:34;24.42;;;12.23;;
12597;SDS011;6364;53.590;9.956;2023-11-22T06:55:59;27.27;;;12.15;;
12597;SDS011;6364;53.590;9.956;2023-11-22T06:58:26;29.23;;;12.23;;
12597;SDS011;6364;53.590;9.956;2023-11-22T07:00:51;25.67;;;11.98;;
12597;SDS011;6364;53.590;9.956;2023-11-22T07:03:17;22.75;;;11.43;;
12597;SDS011;6364;53.590;9.956;2023-11-22T07:05:42;21.00;;;11.55;;
12597;SDS011;6364;53.590;9.956;2023-11-22T07:08:08;24.38;;;11.57;;
12597;SDS011;6364;53.590;9.956;2023-11-22T07:10:33;22.60;;;11.90;;
12597;SDS011;6364;53.590;9.956;2023-11-22T07:12:59;27.15;;;13.27;;
12597;SDS011;6364;53.590;9.956;2023-11-22T07:15:26;22.95;;;11.68;;
12597;SDS011;6364;53.590;9.956;2023-11-22T07:17:52;29.98;;;11.88;;
12597;SDS011;6364;53.590;9.956;2023-11-22T07:20:17;23.48;;;11.38;;
12597;SDS011;6364;53.590;9.956;2023-11-22T07:22:43;20.67;;;11.02;;
12597;SDS011;6364;53.590;9.956;2023-11-22T07:25:09;24.58;;;11.40;;
12597;SDS011;6364;53.590;9.956;2023-11-22T07:27:46;22.48;;;11.55;;
12597;SDS011;6364;53.590;9.956;2023-11-22T07:30:15;27.45;;;11.90;;
12597;SDS011;6364;53.590;9.956;2023-11-22T07:32:40;22.40;;;10.65;;
12597;SDS011;6364;53.590;9.956;2023-11-22T07:35:07;23.13;;;10.38;;
12597;SDS011;6364;53.590;9.956;2023-11-22T07:37:37;21.08;;;10.63;;
12597;SDS011;6364;53.590;9.956;2023-11-22T07:40:07;30.17;;;11.43;;
12597;SDS011;6364;53.590;9.956;2023-11-22T07:42:34;26.00;;;11.07;;
12597;SDS011;6364;53.590;9.956;2023-11-22T07:44:59;27.67;;;11.25;;
12597;SDS011;6364;53.590;9.956;2023-11-22T07:47:25;27.48;;;11.02;;
12597;SDS011;6364;53.590;9.956;2023-11-22T07:49:51;20.65;;;10.32;;
12597;SDS011;6364;53.590;9.956;2023-11-22T07:52:17;22.58;;;11.50;;
12597;SDS011;6364;53.590;9.956;2023-11-22T07:54:42;25.30;;;10.82;;
12597;SDS011;6364;53.590;9.956;2023-11-22T07:57:09;24.52;;;10.82;;
12597;SDS011;6364;53.590;9.956;2023-11-22T07:59:35;22.65;;;10.93;;
12597;SDS011;6364;53.590;9.956;2023-11-22T08:02:01;21.30;;;10.95;;
12597;SDS011;6364;53.590;9.956;2023-11-22T08:04:27;20.60;;;10.38;;
12597;SDS011;6364;53.590;9.956;2023-11-22T08:06:57;21.63;;;10.65;;
12597;SDS011;6364;53.590;9.956;2023-11-22T08:09:23;29.35;;;11.70;;
12597;SDS011;6364;53.590;9.956;2023-11-22T08:11:48;23.42;;;11.32;;
12597;SDS011;6364;53.590;9.956;2023-11-22T08:14:14;25.00;;;11.27;;
12597;SDS011;6364;53.590;9.956;2023-11-22T08:16:40;23.63;;;11.60;;
12597;SDS011;6364;53.590;9.956;2023-11-22T08:19:07;27.85;;;11.93;;
12597;SDS011;6364;53.590;9.956;2023-11-22T08:21:33;23.20;;;10.50;;
12597;SDS011;6364;53.590;9.956;2023-11-22T08:23:59;26.45;;;11.55;;
12597;SDS011;6364;53.590;9.956;2023-11-22T08:26:25;26.30;;;11.82;;
12597;SDS011;6364;53.590;9.956;2023-11-22T08:28:53;21.80;;;11.75;;
12597;SDS011;6364;53.590;9.956;2023-11-22T08:31:18;24.98;;;12.30;;
12597;SDS011;6364;53.590;9.956;2023-11-22T08:33:45;26.58;;;13.07;;
12597;SDS011;6364;53.590;9.956;2023-11-22T08:36:10;28.52;;;13.25;;
12597;SDS011;6364;53.590;9.956;2023-11-22T08:38:36;27.92;;;13.35;;
12597;SDS011;6364;53.590;9.956;2023-11-22T08:41:04;25.55;;;12.00;;
12597;SDS011;6364;53.590;9.956;2023-11-22T08:43:36;29.55;;;13.43;;
12597;SDS011;6364;53.590;9.956;2023-11-22T08:46:02;28.63;;;12.77;;
12597;SDS011;6364;53.590;9.956;2023-11-22T08:48:31;27.50;;;12.75;;
12597;SDS011;6364;53.590;9.956;2023-11-22T08:50:57;25.63;;;11.95;;
12597;SDS011;6364;53.590;9.956;2023-11-22T08:53:23;23.40;;;11.65;;
12597;SDS011;6364;53.590;9.956;2023-11-22T08:55:49;21.17;;;11.05;;
12597;SDS011;6364;53.590;9.956;2023-11-22T08:58:14;19.42;;;11.07;;
12597;SDS011;6364;53.590;9.956;2023-11-22T09:00:40;17.90;;;10.30;;
12597;SDS011;6364;53.590;9.956;2023-11-22T09:03:07;21.40;;;11.70;;
12597;SDS011;6364;53.590;9.956;2023-11-22T09:05:33;21.02;;;10.15;;
12597;SDS011;6364;53.590;9.956;2023-11-22T09:07:58;23.02;;;11.77;;
12597;SDS011;6364;53.590;9.956;2023-11-22T09:10:26;25.00;;;11.40;;
12597;SDS011;6364;53.590;9.956;2023-11-22T09:12:52;19.27;;;11.38;;
12597;SDS011;6364;53.590;9.956;2023-11-22T09:15:18;20.05;;;11.10;;
12597;SDS011;6364;53.590;9.956;2023-11-22T09:17:48;19.60;;;11.40;;
12597;SDS011;6364;53.590;9.956;2023-11-22T09:20:15;21.48;;;11.20;;
12597;SDS011;6364;53.590;9.956;2023-11-22T09:22:48;26.58;;;11.20;;
12597;SDS011;6364;53.590;9.956;2023-11-22T09:25:19;24.08;;;11.95;;
12597;SDS011;6364;53.590;9.956;2023-11-22T09:27:46;19.58;;;11.35;;
12597;SDS011;6364;53.590;9.956;2023-11-22T09:30:13;19.25;;;11.63;;
12597;SDS011;6364;53.590;9.956;2023-11-22T09:35:27;19.92;;;12.20;;
12597;SDS011;6364;53.590;9.956;2023-11-22T09:37:54;18.90;;;11.50;;
12597;SDS011;6364;53.590;9.956;2023-11-22T09:40:29;22.23;;;11.80;;
12597;SDS011;6364;53.590;9.956;2023-11-22T09:42:57;23.00;;;12.00;;
12597;SDS011;6364;53.590;9.956;2023-11-22T09:45:27;18.30;;;11.65;;
12597;SDS011;6364;53.590;9.956;2023-11-22T09:47:55;19.05;;;11.45;;
12597;SDS011;6364;53.590;9.956;2023-11-22T09:50:23;17.65;;;11.10;;
12597;SDS011;6364;53.590;9.956;2023-11-22T09:52:51;23.23;;;10.77;;
12597;SDS011;6364;53.590;9.956;2023-11-22T09:55:21;18.42;;;10.98;;
12597;SDS011;6364;53.590;9.956;2023-11-22T09:57:47;20.13;;;10.60;;
12597;SDS011;6364;53.590;9.956;2023-11-22T10:00:14;15.13;;;9.10;;
12597;SDS011;6364;53.590;9.956;2023-11-22T10:02:43;18.95;;;8.82;;
12597;SDS011;6364;53.590;9.956;2023-11-22T10:05:09;12.02;;;7.65;;
12597;SDS011;6364;53.590;9.956;2023-11-22T10:07:34;18.58;;;8.65;;
12597;SDS011;6364;53.590;9.956;2023-11-22T10:10:03;11.85;;;7.70;;
12597;SDS011;6364;53.590;9.956;2023-11-22T10:12:30;13.93;;;7.00;;
12597;SDS011;6364;53.590;9.956;2023-11-22T10:15:10;12.73;;;7.43;;
12597;SDS011;6364;53.590;9.956;2023-11-22T10:17:39;14.30;;;7.57;;
12597;SDS011;6364;53.590;9.956;2023-11-22T10:20:05;8.90;;;6.82;;
12597;SDS011;6364;53.590;9.956;2023-11-22T10:22:45;17.67;;;6.95;;
12597;SDS011;6364;53.590;9.956;2023-11-22T10:25:12;16.00;;;7.45;;
12597;SDS011;6364;53.590;9.956;2023-11-22T10:27:39;17.83;;;7.30;;
12597;SDS011;6364;53.590;9.956;2023-11-22T10:30:06;15.75;;;7.00;;
12597;SDS011;6364;53.590;9.956;2023-11-22T10:32:36;14.95;;;6.47;;
12597;SDS011;6364;53.590;9.956;2023-11-22T10:35:03;15.10;;;6.88;;
12597;SDS011;6364;53.590;9.956;2023-11-22T10:37:32;11.20;;;6.35;;
12597;SDS011;6364;53.590;9.956;2023-11-22T10:39:59;10.25;;;5.53;;
12597;SDS011;6364;53.590;9.956;2023-11-22T10:42:24;7.70;;;4.88;;
12597;SDS011;6364;53.590;9.956;2023-11-22T10:44:51;11.25;;;4.90;;
12597;SDS011;6364;53.590;9.956;2023-11-22T10:47:24;12.27;;;4.37;;
12597;SDS011;6364;53.590;9.956;2023-11-22T10:49:51;8.98;;;5.07;;
12597;SDS011;6364;53.590;9.956;2023-11-22T10:52:17;8.38;;;4.63;;
12597;SDS011;6364;53.590;9.956;2023-11-22T10:54:49;6.95;;;4.15;;
12597;SDS011;6364;53.590;9.956;2023-11-22T10:57:19;7.45;;;4.50;;
12597;SDS011;6364;53.590;9.956;2023-11-22T10:59:44;12.38;;;4.70;;
12597;SDS011;6364;53.590;9.956;2023-11-22T11:02:17;8.90;;;3.70;;
12597;SDS011;6364;53.590;9.956;2023-11-22T11:04:48;6.70;;;2.80;;
12597;SDS011;6364;53.590;9.956;2023-11-22T11:07:18;3.53;;;2.58;;
12597;SDS011;6364;53.590;9.956;2023-11-22T11:09:47;6.70;;;2.92;;
12597;SDS011;6364;53.590;9.956;2023-11-22T11:12:16;5.22;;;2.42;;
12597;SDS011;6364;53.590;9.956;2023-11-22T11:14:41;6.05;;;2.58;;
12597;SDS011;6364;53.590;9.956;2023-11-22T11:17:10;2.90;;;2.45;;
12597;SDS011;6364;53.590;9.956;2023-11-22T11:19:35;4.20;;;2.55;;
12597;SDS011;6364;53.590;9.956;2023-11-22T11:22:01;5.80;;;2.92;;
12597;SDS011;6364;53.590;9.956;2023-11-22T11:24:26;6.65;;;2.50;;
12597;SDS011;6364;53.590;9.956;2023-11-22T11:26:52;4.88;;;2.70;;
12597;SDS011;6364;53.590;9.956;2023-11-22T11:29:35;4.03;;;2.72;;
12597;SDS011;6364;53.590;9.956;2023-11-22T11:32:05;6.28;;;2.85;;
12597;SDS011;6364;53.590;9.956;2023-11-22T11:34:45;9.73;;;2.92;;
12597;SDS011;6364;53.590;9.956;2023-11-22T11:37:13;5.30;;;2.67;;
12597;SDS011;6364;53.590;9.956;2023-11-22T11:39:39;4.82;;;2.78;;
12597;SDS011;6364;53.590;9.956;2023-11-22T11:42:09;6.32;;;2.58;;
12597;SDS011;6364;53.590;9.956;2023-11-22T11:44:36;4.78;;;2.60;;
12597;SDS011;6364;53.590;9.956;2023-11-22T11:47:10;2.78;;;2.20;;
12597;SDS011;6364;53.590;9.956;2023-11-22T11:49:39;8.90;;;2.40;;
12597;SDS011;6364;53.590;9.956;2023-11-22T11:52:05;5.35;;;2.50;;
12597;SDS011;6364;53.590;9.956;2023-11-22T11:54:31;3.13;;;2.25;;
12597;SDS011;6364;53.590;9.956;2023-11-22T11:57:00;4.57;;;2.33;;
12597;SDS011;6364;53.590;9.956;2023-11-22T11:59:26;3.67;;;2.70;;
12597;SDS011;6364;53.590;9.956;2023-11-22T12:01:55;4.43;;;2.30;;
12597;SDS011;6364;53.590;9.956;2023-11-22T12:04:22;6.30;;;2.47;;
12597;SDS011;6364;53.590;9.956;2023-11-22T12:06:49;2.28;;;1.90;;
12597;SDS011;6364;53.590;9.956;2023-11-22T12:09:21;5.90;;;1.60;;
12597;SDS011;6364;53.590;9.956;2023-11-22T12:11:49;2.22;;;1.50;;
12597;SDS011;6364;53.590;9.956;2023-11-22T12:14:14;1.83;;;1.55;;
12597;SDS011;6364;53.590;9.956;2023-11-22T12:16:40;2.22;;;1.60;;
12597;SDS011;6364;53.590;9.956;2023-11-22T12:19:08;2.38;;;1.70;;
12597;SDS011;6364;53.590;9.956;2023-11-22T12:21:36;4.10;;;1.73;;
12597;SDS011;6364;53.590;9.956;2023-11-22T12:24:02;3.30;;;1.83;;
12597;SDS011;6364;53.590;9.956;2023-11-22T12:26:31;3.53;;;1.73;;
12597;SDS011;6364;53.590;9.956;2023-11-22T12:28:58;2.13;;;1.45;;
12597;SDS011;6364;53.590;9.956;2023-11-22T12:31:23;2.38;;;1.75;;
12597;SDS011;6364;53.590;9.956;2023-11-22T12:33:49;5.03;;;2.25;;
12597;SDS011;6364;53.590;9.956;2023-11-22T12:36:15;3.15;;;1.60;;
12597;SDS011;6364;53.590;9.956;2023-11-22T12:38:42;4.18;;;1.80;;
12597;SDS011;6364;53.590;9.956;2023-11-22T12:41:08;2.33;;;1.70;;
12597;SDS011;6364;53.590;9.956;2023-11-22T12:43:34;4.20;;;1.90;;
12597;SDS011;6364;53.590;9.956;2023-11-22T12:46:03;3.88;;;1.90;;
12597;SDS011;6364;53.590;9.956;2023-11-22T12:48:29;6.70;;;2.30;;
12597;SDS011;6364;53.590;9.956;2023-11-22T12:50:56;7.00;;;1.90;;
12597;SDS011;6364;53.590;9.956;2023-11-22T12:53:22;2.42;;;1.80;;
12597;SDS011;6364;53.590;9.956;2023-11-22T12:55:48;2.83;;;1.42;;
12597;SDS011;6364;53.590;9.956;2023-11-22T12:58:15;3.20;;;1.60;;
12597;SDS011;6364;53.590;9.956;2023-11-22T13:00:42;3.95;;;1.88;;
12597;SDS011;6364;53.590;9.956;2023-11-22T13:03:08;3.45;;;1.83;;
12597;SDS011;6364;53.590;9.956;2023-11-22T13:05:45;2.28;;;1.80;;
12597;SDS011;6364;53.590;9.956;2023-11-22T13:08:11;2.35;;;1.70;;
12597;SDS011;6364;53.590;9.956;2023-11-22T13:13:10;2.80;;;1.50;;
12597;SDS011;6364;53.590;9.956;2023-11-22T13:15:35;1.90;;;1.63;;
12597;SDS011;6364;53.590;9.956;2023-11-22T13:18:01;2.65;;;1.40;;
12597;SDS011;6364;53.590;9.956;2023-11-22T13:20:27;2.05;;;1.30;;
12597;SDS011;6364;53.590;9.956;2023-11-22T13:22:55;2.92;;;1.05;;
12597;SDS011;6364;53.590;9.956;2023-11-22T13:25:21;1.60;;;1.30;;
12597;SDS011;6364;53.590;9.956;2023-11-22T13:27:48;1.58;;;1.13;;
12597;SDS011;6364;53.590;9.956;2023-11-22T13:30:15;3.20;;;1.38;;
12597;SDS011;6364;53.590;9.956;2023-11-22T13:32:43;2.35;;;1.73;;
12597;SDS011;6364;53.590;9.956;2023-11-22T13:35:09;1.75;;;1.33;;
12597;SDS011;6364;53.590;9.956;2023-11-22T13:37:40;2.67;;;1.70;;
12597;SDS011;6364;53.590;9.956;2023-11-22T13:40:08;1.90;;;1.40;;
12597;SDS011;6364;53.590;9.956;2023-11-22T13:42:39;4.70;;;1.58;;
12597;SDS011;6364;53.590;9.956;2023-11-22T13:45:05;2.00;;;1.20;;
12597;SDS011;6364;53.590;9.956;2023-11-22T13:47:31;3.85;;;1.75;;
12597;SDS011;6364;53.590;9.956;2023-11-22T13:49:58;3.15;;;1.70;;
12597;SDS011;6364;53.590;9.956;2023-11-22T13:52:24;2.67;;;1.80;;
12597;SDS011;6364;53.590;9.956;2023-11-22T13:54:49;4.05;;;2.00;;
12597;SDS011;6364;53.590;9.956;2023-11-22T13:57:16;3.55;;;2.03;;
12597;SDS011;6364;53.590;9.956;2023-11-22T13:59:42;5.03;;;1.85;;
12597;SDS011;6364;53.590;9.956;2023-11-22T14:02:07;3.13;;;2.20;;
12597;SDS011;6364;53.590;9.956;2023-11-22T14:04:32;3.10;;;2.05;;
12597;SDS011;6364;53.590;9.956;2023-11-22T14:06:59;4.20;;;2.10;;
12597;SDS011;6364;53.590;9.956;2023-11-22T14:09:25;4.03;;;2.50;;
12597;SDS011;6364;53.590;9.956;2023-11-22T14:11:51;3.53;;;2.22;;
12597;SDS011;6364;53.590;9.956;2023-11-22T14:14:18;2.75;;;1.90;;
12597;SDS011;6364;53.590;9.956;2023-11-22T14:16:44;3.13;;;2.15;;
12597;SDS011;6364;53.590;9.956;2023-11-22T14:19:10;2.70;;;2.25;;
12597;SDS011;6364;53.590;9.956;2023-11-22T14:21:36;4.32;;;2.15;;
12597;SDS011;6364;53.590;9.956;2023-11-22T14:24:02;3.15;;;2.20;;
12597;SDS011;6364;53.590;9.956;2023-11-22T14:26:27;3.92;;;2.00;;
12597;SDS011;6364;53.590;9.956;2023-11-22T14:28:52;3.90;;;2.03;;
12597;SDS011;6364;53.590;9.956;2023-11-22T14:31:18;2.80;;;2.13;;
12597;SDS011;6364;53.590;9.956;2023-11-22T14:33:46;3.97;;;2.20;;
12597;SDS011;6364;53.590;9.956;2023-11-22T14:36:12;5.65;;;2.40;;
12597;SDS011;6364;53.590;9.956;2023-11-22T14:38:37;4.30;;;2.30;;
12597;SDS011;6364;53.590;9.956;2023-11-22T14:41:02;5.18;;;2.63;;
12597;SDS011;6364;53.590;9.956;2023-11-22T14:43:28;2.83;;;2.13;;
12597;SDS011;6364;53.590;9.956;2023-11-22T14:45:54;5.18;;;2.25;;
12597;SDS011;6364;53.590;9.956;2023-11-22T14:48:20;5.32;;;2.15;;
12597;SDS011;6364;53.590;9.956;2023-11-22T14:50:46;2.97;;;1.80;;